sensor_id;sensor_type;location;lat;lon;timestamp;P1;durP1;ratioP1;P2;durP2;ratioP2
6432;SDS011;3249;42.690;23.260;2022-09-19T00:01:29;6.50;;;5.67;;
6432;SDS011;3249;42.690;23.260;2022-09-19T00:03:57;7.47;;;5.80;;
6432;SDS011;3249;42.690;23.260;2022-09-19T00:06:25;7.13;;;6.00;;
6432;SDS011;3249;42.690;23.260;2022-09-19T00:08:53;6.37;;;5.83;;
6432;SDS011;3249;42.690;23.260;2022-09-19T00:11:19;7.17;;;5.97;;
6432;SDS011;3249;42.690;23.260;2022-09-19T00:13:46;6.40;;;5.80;;
6432;SDS011;3249;42.690;23.260;2022-09-19T00:16:32;6.90;;;6.40;;
6432;SDS011;3249;42.690;23.260;2022-09-19T00:19:00;7.50;;;6.73;;
6432;SDS011;3249;42.690;23.260;2022-09-19T00:21:28;7.87;;;7.17;;
6432;SDS011;3249;42.690;23.260;2022-09-19T00:23:56;7.33;;;6.73;;
6432;SDS011;3249;42.690;23.260;2022-09-19T00:26:41;10.83;;;7.10;;
6432;SDS011;3249;42.690;23.260;2022-09-19T00:29:08;7.27;;;6.57;;
6432;SDS011;3249;42.690;23.260;2022-09-19T00:31:34;7.27;;;6.67;;
6432;SDS011;3249;42.690;23.260;2022-09-19T00:34:00;8.03;;;7.33;;
6432;SDS011;3249;42.690;23.260;2022-09-19T00:36:26;7.20;;;6.60;;
6432;SDS011;3249;42.690;23.260;2022-09-19T00:38:52;11.33;;;7.30;;
6432;SDS011;3249;42.690;23.260;2022-09-19T00:41:19;7.60;;;6.90;;
6432;SDS011;3249;42.690;23.260;2022-09-19T00:43:57;7.43;;;6.93;;
6432;SDS011;3249;42.690;23.260;2022-09-19T00:46:29;8.07;;;7.37;;
6432;SDS011;3249;42.690;23.260;2022-09-19T00:49:09;7.17;;;6.57;;
6432;SDS011;3249;42.690;23.260;2022-09-19T00:51:41;7.13;;;6.63;;
6432;SDS011;3249;42.690;23.260;2022-09-19T00:54:15;8.33;;;6.73;;
6432;SDS011;3249;42.690;23.260;2022-09-19T00:56:46;7.47;;;6.77;;
6432;SDS011;3249;42.690;23.260;2022-09-19T00:59:14;7.37;;;6.67;;
6432;SDS011;3249;42.690;23.260;2022-09-19T01:01:41;7.33;;;6.67;;
6432;SDS011;3249;42.690;23.260;2022-09-19T01:04:16;7.87;;;6.53;;
6432;SDS011;3249;42.690;23.260;2022-09-19T01:12:12;5.90;;;5.30;;
6432;SDS011;3249;42.690;23.260;2022-09-19T01:17:31;8.33;;;6.60;;
6432;SDS011;3249;42.690;23.260;2022-09-19T01:25:49;10.40;;;6.33;;
6432;SDS011;3249;42.690;23.260;2022-09-19T01:28:20;7.33;;;6.63;;
6432;SDS011;3249;42.690;23.260;2022-09-19T01:33:37;6.37;;;5.80;;
6432;SDS011;3249;42.690;23.260;2022-09-19T01:36:05;7.93;;;6.20;;
6432;SDS011;3249;42.690;23.260;2022-09-19T01:38:34;7.17;;;6.47;;
6432;SDS011;3249;42.690;23.260;2022-09-19T01:41:05;7.30;;;6.50;;
6432;SDS011;3249;42.690;23.260;2022-09-19T01:43:33;9.73;;;6.20;;
6432;SDS011;3249;42.690;23.260;2022-09-19T01:46:00;5.83;;;5.43;;
6432;SDS011;3249;42.690;23.260;2022-09-19T01:48:43;11.10;;;6.50;;
6432;SDS011;3249;42.690;23.260;2022-09-19T01:51:20;9.27;;;6.30;;
6432;SDS011;3249;42.690;23.260;2022-09-19T02:05:10;9.40;;;7.23;;
6432;SDS011;3249;42.690;23.260;2022-09-19T02:10:30;6.83;;;5.73;;
6432;SDS011;3249;42.690;23.260;2022-09-19T02:12:56;7.87;;;6.73;;
6432;SDS011;3249;42.690;23.260;2022-09-19T02:15:25;6.67;;;6.07;;
6432;SDS011;3249;42.690;23.260;2022-09-19T02:17:56;6.30;;;5.80;;
6432;SDS011;3249;42.690;23.260;2022-09-19T02:20:28;7.17;;;6.17;;
6432;SDS011;3249;42.690;23.260;2022-09-19T02:23:02;10.90;;;6.77;;
6432;SDS011;3249;42.690;23.260;2022-09-19T02:25:34;7.80;;;6.73;;
6432;SDS011;3249;42.690;23.260;2022-09-19T02:28:03;8.73;;;7.50;;
6432;SDS011;3249;42.690;23.260;2022-09-19T02:30:32;9.47;;;8.47;;
6432;SDS011;3249;42.690;23.260;2022-09-19T02:32:59;7.73;;;6.90;;
6432;SDS011;3249;42.690;23.260;2022-09-19T02:35:35;7.60;;;6.90;;
6432;SDS011;3249;42.690;23.260;2022-09-19T02:38:11;6.43;;;5.87;;
6432;SDS011;3249;42.690;23.260;2022-09-19T02:40:59;7.47;;;6.73;;
6432;SDS011;3249;42.690;23.260;2022-09-19T02:46:20;7.10;;;6.27;;
6432;SDS011;3249;42.690;23.260;2022-09-19T02:48:58;6.53;;;6.03;;
6432;SDS011;3249;42.690;23.260;2022-09-19T02:51:30;7.40;;;6.67;;
6432;SDS011;3249;42.690;23.260;2022-09-19T02:54:12;7.43;;;6.90;;
6432;SDS011;3249;42.690;23.260;2022-09-19T02:56:42;9.10;;;8.07;;
6432;SDS011;3249;42.690;23.260;2022-09-19T02:59:17;8.40;;;7.60;;
6432;SDS011;3249;42.690;23.260;2022-09-19T03:01:48;7.87;;;7.13;;
6432;SDS011;3249;42.690;23.260;2022-09-19T03:04:23;8.43;;;6.87;;
6432;SDS011;3249;42.690;23.260;2022-09-19T03:07:02;10.17;;;8.50;;
6432;SDS011;3249;42.690;23.260;2022-09-19T03:09:37;8.00;;;6.83;;
6432;SDS011;3249;42.690;23.260;2022-09-19T03:12:13;11.73;;;8.10;;
6432;SDS011;3249;42.690;23.260;2022-09-19T03:14:48;8.70;;;7.23;;
6432;SDS011;3249;42.690;23.260;2022-09-19T03:17:21;10.17;;;7.80;;
6432;SDS011;3249;42.690;23.260;2022-09-19T03:19:52;10.47;;;8.40;;
6432;SDS011;3249;42.690;23.260;2022-09-19T03:22:18;12.23;;;8.60;;
6432;SDS011;3249;42.690;23.260;2022-09-19T03:24:43;9.10;;;8.07;;
6432;SDS011;3249;42.690;23.260;2022-09-19T03:27:09;9.03;;;8.13;;
6432;SDS011;3249;42.690;23.260;2022-09-19T03:29:35;14.03;;;10.07;;
6432;SDS011;3249;42.690;23.260;2022-09-19T03:32:01;10.77;;;7.80;;
6432;SDS011;3249;42.690;23.260;2022-09-19T03:34:27;9.67;;;8.67;;
6432;SDS011;3249;42.690;23.260;2022-09-19T03:36:53;10.27;;;9.30;;
6432;SDS011;3249;42.690;23.260;2022-09-19T03:39:19;10.40;;;9.33;;
6432;SDS011;3249;42.690;23.260;2022-09-19T03:41:44;9.40;;;7.67;;
6432;SDS011;3249;42.690;23.260;2022-09-19T03:44:09;7.60;;;6.90;;
6432;SDS011;3249;42.690;23.260;2022-09-19T03:46:36;10.80;;;7.23;;
6432;SDS011;3249;42.690;23.260;2022-09-19T03:49:02;9.17;;;7.67;;
6432;SDS011;3249;42.690;23.260;2022-09-19T03:51:28;12.20;;;9.27;;
6432;SDS011;3249;42.690;23.260;2022-09-19T03:53:55;12.60;;;8.53;;
6432;SDS011;3249;42.690;23.260;2022-09-19T03:56:21;10.47;;;7.37;;
6432;SDS011;3249;42.690;23.260;2022-09-19T03:58:47;13.17;;;8.70;;
6432;SDS011;3249;42.690;23.260;2022-09-19T04:01:12;8.43;;;7.67;;
6432;SDS011;3249;42.690;23.260;2022-09-19T04:03:39;7.47;;;6.87;;
6432;SDS011;3249;42.690;23.260;2022-09-19T04:06:06;12.80;;;7.97;;
6432;SDS011;3249;42.690;23.260;2022-09-19T04:08:31;10.53;;;8.80;;
6432;SDS011;3249;42.690;23.260;2022-09-19T04:10:58;10.77;;;9.67;;
6432;SDS011;3249;42.690;23.260;2022-09-19T04:13:24;14.60;;;10.20;;
6432;SDS011;3249;42.690;23.260;2022-09-19T04:15:49;15.03;;;8.17;;
6432;SDS011;3249;42.690;23.260;2022-09-19T04:18:16;14.83;;;8.67;;
6432;SDS011;3249;42.690;23.260;2022-09-19T04:20:43;15.80;;;8.60;;
6432;SDS011;3249;42.690;23.260;2022-09-19T04:23:11;11.43;;;8.63;;
6432;SDS011;3249;42.690;23.260;2022-09-19T04:25:42;10.00;;;7.37;;
6432;SDS011;3249;42.690;23.260;2022-09-19T04:28:10;15.70;;;8.63;;
6432;SDS011;3249;42.690;23.260;2022-09-19T04:30:37;22.33;;;9.87;;
6432;SDS011;3249;42.690;23.260;2022-09-19T04:33:06;10.67;;;8.27;;
6432;SDS011;3249;42.690;23.260;2022-09-19T04:35:33;20.53;;;10.90;;
6432;SDS011;3249;42.690;23.260;2022-09-19T04:38:07;17.53;;;12.77;;
6432;SDS011;3249;42.690;23.260;2022-09-19T04:40:40;25.17;;;13.43;;
6432;SDS011;3249;42.690;23.260;2022-09-19T04:43:08;23.13;;;12.20;;
6432;SDS011;3249;42.690;23.260;2022-09-19T04:45:40;23.43;;;13.23;;
6432;SDS011;3249;42.690;23.260;2022-09-19T04:48:31;16.37;;;9.73;;
6432;SDS011;3249;42.690;23.260;2022-09-19T04:50:59;23.53;;;9.97;;
6432;SDS011;3249;42.690;23.260;2022-09-19T04:53:25;18.47;;;10.03;;
6432;SDS011;3249;42.690;23.260;2022-09-19T04:55:53;17.47;;;11.17;;
6432;SDS011;3249;42.690;23.260;2022-09-19T04:58:20;22.57;;;12.20;;
6432;SDS011;3249;42.690;23.260;2022-09-19T05:00:52;16.23;;;12.90;;
6432;SDS011;3249;42.690;23.260;2022-09-19T05:03:20;22.07;;;14.37;;
6432;SDS011;3249;42.690;23.260;2022-09-19T05:05:50;26.37;;;14.27;;
6432;SDS011;3249;42.690;23.260;2022-09-19T05:08:18;24.43;;;12.80;;
6432;SDS011;3249;42.690;23.260;2022-09-19T05:10:49;18.23;;;12.37;;
6432;SDS011;3249;42.690;23.260;2022-09-19T05:13:16;25.83;;;14.63;;
6432;SDS011;3249;42.690;23.260;2022-09-19T05:15:45;13.53;;;9.90;;
6432;SDS011;3249;42.690;23.260;2022-09-19T05:18:11;20.03;;;13.73;;
6432;SDS011;3249;42.690;23.260;2022-09-19T05:20:36;16.10;;;8.97;;
6432;SDS011;3249;42.690;23.260;2022-09-19T05:23:03;13.33;;;7.50;;
6432;SDS011;3249;42.690;23.260;2022-09-19T05:25:29;16.77;;;8.67;;
6432;SDS011;3249;42.690;23.260;2022-09-19T05:28:00;15.63;;;11.77;;
6432;SDS011;3249;42.690;23.260;2022-09-19T05:30:34;27.53;;;19.13;;
6432;SDS011;3249;42.690;23.260;2022-09-19T05:33:02;28.73;;;18.23;;
6432;SDS011;3249;42.690;23.260;2022-09-19T05:35:28;17.93;;;13.83;;
6432;SDS011;3249;42.690;23.260;2022-09-19T05:37:55;22.63;;;15.60;;
6432;SDS011;3249;42.690;23.260;2022-09-19T05:40:22;21.10;;;14.63;;
6432;SDS011;3249;42.690;23.260;2022-09-19T05:42:48;12.67;;;10.30;;
6432;SDS011;3249;42.690;23.260;2022-09-19T05:45:15;19.47;;;12.60;;
6432;SDS011;3249;42.690;23.260;2022-09-19T05:47:41;13.47;;;10.83;;
6432;SDS011;3249;42.690;23.260;2022-09-19T05:50:07;16.60;;;10.63;;
6432;SDS011;3249;42.690;23.260;2022-09-19T05:52:37;15.37;;;11.07;;
6432;SDS011;3249;42.690;23.260;2022-09-19T05:55:22;18.27;;;11.47;;
6432;SDS011;3249;42.690;23.260;2022-09-19T05:57:49;32.03;;;26.93;;
6432;SDS011;3249;42.690;23.260;2022-09-19T06:00:16;35.77;;;31.23;;
6432;SDS011;3249;42.690;23.260;2022-09-19T06:02:41;33.37;;;19.90;;
6432;SDS011;3249;42.690;23.260;2022-09-19T06:05:07;20.70;;;16.87;;
6432;SDS011;3249;42.690;23.260;2022-09-19T06:07:32;15.77;;;12.60;;
6432;SDS011;3249;42.690;23.260;2022-09-19T06:09:57;19.63;;;14.63;;
6432;SDS011;3249;42.690;23.260;2022-09-19T06:12:23;18.27;;;15.97;;
6432;SDS011;3249;42.690;23.260;2022-09-19T06:14:49;27.60;;;20.67;;
6432;SDS011;3249;42.690;23.260;2022-09-19T06:17:14;22.23;;;19.43;;
6432;SDS011;3249;42.690;23.260;2022-09-19T06:19:41;16.80;;;15.03;;
6432;SDS011;3249;42.690;23.260;2022-09-19T06:22:07;13.00;;;11.57;;
6432;SDS011;3249;42.690;23.260;2022-09-19T06:24:32;11.63;;;10.43;;
6432;SDS011;3249;42.690;23.260;2022-09-19T06:26:58;12.00;;;10.80;;
6432;SDS011;3249;42.690;23.260;2022-09-19T06:29:23;15.97;;;9.67;;
6432;SDS011;3249;42.690;23.260;2022-09-19T06:31:48;17.63;;;13.23;;
6432;SDS011;3249;42.690;23.260;2022-09-19T06:34:14;11.27;;;10.27;;
6432;SDS011;3249;42.690;23.260;2022-09-19T06:36:40;15.60;;;11.23;;
6432;SDS011;3249;42.690;23.260;2022-09-19T06:39:08;12.97;;;10.53;;
6432;SDS011;3249;42.690;23.260;2022-09-19T06:41:33;12.67;;;11.47;;
6432;SDS011;3249;42.690;23.260;2022-09-19T06:43:59;14.60;;;11.10;;
6432;SDS011;3249;42.690;23.260;2022-09-19T06:46:26;13.67;;;10.40;;
6432;SDS011;3249;42.690;23.260;2022-09-19T06:48:51;12.83;;;11.53;;
6432;SDS011;3249;42.690;23.260;2022-09-19T06:51:17;13.60;;;10.93;;
6432;SDS011;3249;42.690;23.260;2022-09-19T06:53:42;12.53;;;11.40;;
6432;SDS011;3249;42.690;23.260;2022-09-19T06:56:08;14.43;;;12.37;;
6432;SDS011;3249;42.690;23.260;2022-09-19T06:58:33;16.30;;;12.10;;
6432;SDS011;3249;42.690;23.260;2022-09-19T07:00:59;15.07;;;11.10;;
6432;SDS011;3249;42.690;23.260;2022-09-19T07:03:26;13.17;;;10.93;;
6432;SDS011;3249;42.690;23.260;2022-09-19T07:05:52;11.20;;;10.03;;
6432;SDS011;3249;42.690;23.260;2022-09-19T07:08:17;11.27;;;9.43;;
6432;SDS011;3249;42.690;23.260;2022-09-19T07:10:43;11.20;;;9.37;;
6432;SDS011;3249;42.690;23.260;2022-09-19T07:13:10;10.07;;;9.17;;
6432;SDS011;3249;42.690;23.260;2022-09-19T07:15:41;12.57;;;8.90;;
6432;SDS011;3249;42.690;23.260;2022-09-19T07:18:07;8.90;;;8.00;;
6432;SDS011;3249;42.690;23.260;2022-09-19T07:20:33;11.07;;;8.00;;
6432;SDS011;3249;42.690;23.260;2022-09-19T07:25:30;10.87;;;9.60;;
6432;SDS011;3249;42.690;23.260;2022-09-19T07:27:58;14.67;;;9.50;;
6432;SDS011;3249;42.690;23.260;2022-09-19T07:30:25;9.50;;;8.50;;
6432;SDS011;3249;42.690;23.260;2022-09-19T07:32:58;10.00;;;9.00;;
6432;SDS011;3249;42.690;23.260;2022-09-19T07:35:25;10.27;;;9.20;;
6432;SDS011;3249;42.690;23.260;2022-09-19T07:37:53;10.23;;;8.40;;
6432;SDS011;3249;42.690;23.260;2022-09-19T07:40:19;15.43;;;9.33;;
6432;SDS011;3249;42.690;23.260;2022-09-19T07:42:45;12.57;;;9.33;;
6432;SDS011;3249;42.690;23.260;2022-09-19T07:45:10;10.90;;;8.20;;
6432;SDS011;3249;42.690;23.260;2022-09-19T07:47:54;12.60;;;8.87;;
6432;SDS011;3249;42.690;23.260;2022-09-19T07:50:20;10.63;;;8.00;;
6432;SDS011;3249;42.690;23.260;2022-09-19T07:52:46;9.27;;;7.03;;
6432;SDS011;3249;42.690;23.260;2022-09-19T07:55:15;11.40;;;9.13;;
6432;SDS011;3249;42.690;23.260;2022-09-19T07:57:50;8.17;;;7.30;;
6432;SDS011;3249;42.690;23.260;2022-09-19T08:00:16;7.80;;;7.20;;
6432;SDS011;3249;42.690;23.260;2022-09-19T08:02:42;7.67;;;6.97;;
6432;SDS011;3249;42.690;23.260;2022-09-19T08:05:08;11.30;;;8.00;;
6432;SDS011;3249;42.690;23.260;2022-09-19T08:07:34;12.07;;;8.03;;
6432;SDS011;3249;42.690;23.260;2022-09-19T08:10:00;12.37;;;8.13;;
6432;SDS011;3249;42.690;23.260;2022-09-19T08:12:27;10.17;;;8.03;;
6432;SDS011;3249;42.690;23.260;2022-09-19T08:14:53;8.27;;;7.50;;
6432;SDS011;3249;42.690;23.260;2022-09-19T08:17:21;10.77;;;7.37;;
6432;SDS011;3249;42.690;23.260;2022-09-19T08:19:46;8.43;;;7.60;;
6432;SDS011;3249;42.690;23.260;2022-09-19T08:22:12;8.40;;;7.60;;
6432;SDS011;3249;42.690;23.260;2022-09-19T08:24:38;8.93;;;7.87;;
6432;SDS011;3249;42.690;23.260;2022-09-19T08:27:03;8.23;;;7.43;;
6432;SDS011;3249;42.690;23.260;2022-09-19T08:29:29;11.50;;;8.10;;
6432;SDS011;3249;42.690;23.260;2022-09-19T08:31:57;8.57;;;7.77;;
6432;SDS011;3249;42.690;23.260;2022-09-19T08:34:24;9.70;;;7.47;;
6432;SDS011;3249;42.690;23.260;2022-09-19T08:36:50;9.10;;;6.77;;
6432;SDS011;3249;42.690;23.260;2022-09-19T08:39:16;8.20;;;7.27;;
6432;SDS011;3249;42.690;23.260;2022-09-19T08:47:09;12.20;;;8.20;;
6432;SDS011;3249;42.690;23.260;2022-09-19T08:55:06;9.10;;;7.27;;
6432;SDS011;3249;42.690;23.260;2022-09-19T08:57:50;9.47;;;7.67;;
6432;SDS011;3249;42.690;23.260;2022-09-19T09:00:20;9.33;;;7.20;;
6432;SDS011;3249;42.690;23.260;2022-09-19T09:02:51;9.70;;;7.00;;
6432;SDS011;3249;42.690;23.260;2022-09-19T09:16:55;11.40;;;7.10;;
6432;SDS011;3249;42.690;23.260;2022-09-19T09:22:25;8.63;;;6.70;;
6432;SDS011;3249;42.690;23.260;2022-09-19T09:30:35;7.57;;;6.27;;
6432;SDS011;3249;42.690;23.260;2022-09-19T09:35:38;9.50;;;6.23;;
6432;SDS011;3249;42.690;23.260;2022-09-19T09:41:00;7.30;;;5.67;;
6432;SDS011;3249;42.690;23.260;2022-09-19T09:49:23;7.70;;;6.23;;
6432;SDS011;3249;42.690;23.260;2022-09-19T09:57:58;6.80;;;5.97;;
6432;SDS011;3249;42.690;23.260;2022-09-19T10:00:42;9.67;;;6.37;;
6432;SDS011;3249;42.690;23.260;2022-09-19T10:06:14;7.33;;;5.70;;
6432;SDS011;3249;42.690;23.260;2022-09-19T10:08:44;7.90;;;6.03;;
6432;SDS011;3249;42.690;23.260;2022-09-19T10:11:21;6.30;;;5.70;;
6432;SDS011;3249;42.690;23.260;2022-09-19T10:14:07;10.10;;;5.90;;
6432;SDS011;3249;42.690;23.260;2022-09-19T10:16:49;11.80;;;6.10;;
6432;SDS011;3249;42.690;23.260;2022-09-19T10:19:35;7.47;;;5.87;;
6432;SDS011;3249;42.690;23.260;2022-09-19T10:22:07;9.47;;;5.87;;
6432;SDS011;3249;42.690;23.260;2022-09-19T10:24:45;7.57;;;6.23;;
6432;SDS011;3249;42.690;23.260;2022-09-19T10:30:00;6.67;;;5.53;;
6432;SDS011;3249;42.690;23.260;2022-09-19T10:32:36;17.03;;;5.77;;
6432;SDS011;3249;42.690;23.260;2022-09-19T10:38:09;5.10;;;4.70;;
6432;SDS011;3249;42.690;23.260;2022-09-19T10:41:00;6.93;;;4.47;;
6432;SDS011;3249;42.690;23.260;2022-09-19T10:43:45;8.17;;;4.90;;
6432;SDS011;3249;42.690;23.260;2022-09-19T10:46:48;7.63;;;4.63;;
6432;SDS011;3249;42.690;23.260;2022-09-19T10:49:20;6.77;;;4.43;;
6432;SDS011;3249;42.690;23.260;2022-09-19T10:51:51;8.40;;;4.80;;
6432;SDS011;3249;42.690;23.260;2022-09-19T10:54:37;5.43;;;4.60;;
6432;SDS011;3249;42.690;23.260;2022-09-19T10:57:05;8.13;;;4.80;;
6432;SDS011;3249;42.690;23.260;2022-09-19T11:00:23;11.00;;;6.23;;
6432;SDS011;3249;42.690;23.260;2022-09-19T11:02:54;17.60;;;10.13;;
6432;SDS011;3249;42.690;23.260;2022-09-19T11:05:28;5.40;;;4.20;;
6432;SDS011;3249;42.690;23.260;2022-09-19T11:07:56;5.83;;;3.70;;
6432;SDS011;3249;42.690;23.260;2022-09-19T11:10:34;7.90;;;3.80;;
6432;SDS011;3249;42.690;23.260;2022-09-19T11:13:15;6.97;;;4.47;;
6432;SDS011;3249;42.690;23.260;2022-09-19T11:16:08;4.93;;;4.50;;
6432;SDS011;3249;42.690;23.260;2022-09-19T11:30:42;7.20;;;3.97;;
6432;SDS011;3249;42.690;23.260;2022-09-19T11:35:24;7.33;;;3.47;;
6432;SDS011;3249;42.690;23.260;2022-09-19T12:00:22;6.87;;;4.60;;
6432;SDS011;3249;42.690;23.260;2022-09-19T12:11:22;4.47;;;3.80;;
6432;SDS011;3249;42.690;23.260;2022-09-19T12:14:43;4.63;;;4.00;;
6432;SDS011;3249;42.690;23.260;2022-09-19T12:17:24;5.20;;;3.97;;
6432;SDS011;3249;42.690;23.260;2022-09-19T12:19:56;3.27;;;2.97;;
6432;SDS011;3249;42.690;23.260;2022-09-19T12:22:29;5.50;;;3.73;;
6432;SDS011;3249;42.690;23.260;2022-09-19T12:30:12;3.47;;;3.20;;
6432;SDS011;3249;42.690;23.260;2022-09-19T12:32:48;3.73;;;3.43;;
6432;SDS011;3249;42.690;23.260;2022-09-19T12:38:16;4.13;;;3.60;;
6432;SDS011;3249;42.690;23.260;2022-09-19T12:52:33;3.93;;;3.53;;
6432;SDS011;3249;42.690;23.260;2022-09-19T12:55:17;3.80;;;3.50;;
6432;SDS011;3249;42.690;23.260;2022-09-19T12:57:55;7.43;;;6.90;;
6432;SDS011;3249;42.690;23.260;2022-09-19T13:00:25;4.20;;;3.63;;
6432;SDS011;3249;42.690;23.260;2022-09-19T13:03:00;3.40;;;3.20;;
6432;SDS011;3249;42.690;23.260;2022-09-19T13:06:12;3.10;;;3.00;;
6432;SDS011;3249;42.690;23.260;2022-09-19T13:08:44;3.57;;;3.37;;
6432;SDS011;3249;42.690;23.260;2022-09-19T13:11:17;3.30;;;2.80;;
6432;SDS011;3249;42.690;23.260;2022-09-19T13:16:21;3.13;;;2.93;;
6432;SDS011;3249;42.690;23.260;2022-09-19T13:18:53;3.00;;;2.80;;
6432;SDS011;3249;42.690;23.260;2022-09-19T13:21:43;3.43;;;3.23;;
6432;SDS011;3249;42.690;23.260;2022-09-19T13:24:52;2.97;;;2.87;;
6432;SDS011;3249;42.690;23.260;2022-09-19T13:27:23;4.17;;;3.97;;
6432;SDS011;3249;42.690;23.260;2022-09-19T13:29:50;3.30;;;3.20;;
6432;SDS011;3249;42.690;23.260;2022-09-19T13:32:34;3.40;;;3.23;;
6432;SDS011;3249;42.690;23.260;2022-09-19T13:35:18;3.47;;;3.17;;
6432;SDS011;3249;42.690;23.260;2022-09-19T13:37:49;3.03;;;2.93;;
6432;SDS011;3249;42.690;23.260;2022-09-19T13:47:53;3.80;;;3.60;;
6432;SDS011;3249;42.690;23.260;2022-09-19T13:50:42;3.10;;;3.00;;
6432;SDS011;3249;42.690;23.260;2022-09-19T13:53:22;3.40;;;3.27;;
6432;SDS011;3249;42.690;23.260;2022-09-19T13:56:31;3.30;;;3.03;;
6432;SDS011;3249;42.690;23.260;2022-09-19T13:59:10;3.07;;;2.97;;
6432;SDS011;3249;42.690;23.260;2022-09-19T14:02:02;4.00;;;3.70;;
6432;SDS011;3249;42.690;23.260;2022-09-19T14:04:46;5.47;;;3.53;;
6432;SDS011;3249;42.690;23.260;2022-09-19T14:09:52;3.70;;;3.40;;
6432;SDS011;3249;42.690;23.260;2022-09-19T14:15:05;3.80;;;3.50;;
6432;SDS011;3249;42.690;23.260;2022-09-19T14:18:51;3.80;;;3.60;;
6432;SDS011;3249;42.690;23.260;2022-09-19T14:21:08;6.30;;;3.50;;
6432;SDS011;3249;42.690;23.260;2022-09-19T14:23:36;3.43;;;3.33;;
6432;SDS011;3249;42.690;23.260;2022-09-19T14:39:47;3.57;;;3.13;;
6432;SDS011;3249;42.690;23.260;2022-09-19T14:48:09;3.00;;;2.90;;
6432;SDS011;3249;42.690;23.260;2022-09-19T14:50:44;3.13;;;3.03;;
6432;SDS011;3249;42.690;23.260;2022-09-19T14:55:51;5.13;;;4.73;;
6432;SDS011;3249;42.690;23.260;2022-09-19T14:58:31;4.10;;;3.80;;
6432;SDS011;3249;42.690;23.260;2022-09-19T15:06:35;3.20;;;2.97;;
6432;SDS011;3249;42.690;23.260;2022-09-19T15:09:16;5.17;;;3.53;;
6432;SDS011;3249;42.690;23.260;2022-09-19T15:11:54;3.80;;;3.50;;
6432;SDS011;3249;42.690;23.260;2022-09-19T15:14:21;3.53;;;3.43;;
6432;SDS011;3249;42.690;23.260;2022-09-19T15:17:05;3.00;;;2.90;;
6432;SDS011;3249;42.690;23.260;2022-09-19T15:19:40;3.33;;;3.23;;
6432;SDS011;3249;42.690;23.260;2022-09-19T15:22:17;3.57;;;3.27;;
6432;SDS011;3249;42.690;23.260;2022-09-19T15:24:46;3.60;;;3.40;;
6432;SDS011;3249;42.690;23.260;2022-09-19T15:27:18;3.67;;;3.50;;
6432;SDS011;3249;42.690;23.260;2022-09-19T15:29:45;4.57;;;3.50;;
6432;SDS011;3249;42.690;23.260;2022-09-19T15:35:11;3.43;;;3.33;;
6432;SDS011;3249;42.690;23.260;2022-09-19T15:37:40;3.80;;;3.50;;
6432;SDS011;3249;42.690;23.260;2022-09-19T15:40:11;4.57;;;4.17;;
6432;SDS011;3249;42.690;23.260;2022-09-19T15:42:40;3.70;;;3.40;;
6432;SDS011;3249;42.690;23.260;2022-09-19T15:48:14;3.67;;;3.37;;
6432;SDS011;3249;42.690;23.260;2022-09-19T15:50:44;3.17;;;3.07;;
6432;SDS011;3249;42.690;23.260;2022-09-19T15:53:17;3.60;;;3.40;;
6432;SDS011;3249;42.690;23.260;2022-09-19T15:55:56;4.97;;;3.70;;
6432;SDS011;3249;42.690;23.260;2022-09-19T15:58:33;5.10;;;3.10;;
6432;SDS011;3249;42.690;23.260;2022-09-19T16:01:09;2.70;;;2.60;;
6432;SDS011;3249;42.690;23.260;2022-09-19T16:03:50;2.90;;;2.70;;
6432;SDS011;3249;42.690;23.260;2022-09-19T16:09:06;9.63;;;3.73;;
6432;SDS011;3249;42.690;23.260;2022-09-19T16:14:14;4.03;;;3.63;;
6432;SDS011;3249;42.690;23.260;2022-09-19T16:16:50;5.80;;;3.70;;
6432;SDS011;3249;42.690;23.260;2022-09-19T16:19:20;3.73;;;3.43;;
6432;SDS011;3249;42.690;23.260;2022-09-19T16:21:50;4.77;;;3.20;;
6432;SDS011;3249;42.690;23.260;2022-09-19T16:24:19;6.53;;;3.53;;
6432;SDS011;3249;42.690;23.260;2022-09-19T16:26:47;4.83;;;3.60;;
6432;SDS011;3249;42.690;23.260;2022-09-19T16:29:15;3.43;;;3.10;;
6432;SDS011;3249;42.690;23.260;2022-09-19T16:31:42;3.40;;;3.20;;
6432;SDS011;3249;42.690;23.260;2022-09-19T16:34:22;6.13;;;3.70;;
6432;SDS011;3249;42.690;23.260;2022-09-19T16:37:00;6.70;;;3.30;;
6432;SDS011;3249;42.690;23.260;2022-09-19T16:42:03;5.03;;;3.50;;
6432;SDS011;3249;42.690;23.260;2022-09-19T16:44:41;6.03;;;4.23;;
6432;SDS011;3249;42.690;23.260;2022-09-19T16:47:12;3.30;;;3.00;;
6432;SDS011;3249;42.690;23.260;2022-09-19T16:49:40;3.17;;;2.83;;
6432;SDS011;3249;42.690;23.260;2022-09-19T16:52:08;3.67;;;3.30;;
6432;SDS011;3249;42.690;23.260;2022-09-19T16:54:43;4.17;;;3.70;;
6432;SDS011;3249;42.690;23.260;2022-09-19T16:57:10;6.67;;;3.73;;
6432;SDS011;3249;42.690;23.260;2022-09-19T16:59:37;8.87;;;6.37;;
6432;SDS011;3249;42.690;23.260;2022-09-19T17:02:09;13.10;;;9.40;;
6432;SDS011;3249;42.690;23.260;2022-09-19T17:04:37;13.70;;;11.53;;
6432;SDS011;3249;42.690;23.260;2022-09-19T17:07:03;16.57;;;9.47;;
6432;SDS011;3249;42.690;23.260;2022-09-19T17:09:31;17.53;;;10.40;;
6432;SDS011;3249;42.690;23.260;2022-09-19T17:11:56;25.03;;;11.70;;
6432;SDS011;3249;42.690;23.260;2022-09-19T17:14:24;14.07;;;7.33;;
6432;SDS011;3249;42.690;23.260;2022-09-19T17:16:49;9.50;;;7.10;;
6432;SDS011;3249;42.690;23.260;2022-09-19T17:19:16;10.50;;;6.80;;
6432;SDS011;3249;42.690;23.260;2022-09-19T17:21:42;6.00;;;5.43;;
6432;SDS011;3249;42.690;23.260;2022-09-19T17:24:10;7.93;;;5.37;;
6432;SDS011;3249;42.690;23.260;2022-09-19T17:26:39;12.77;;;7.23;;
6432;SDS011;3249;42.690;23.260;2022-09-19T17:29:06;11.27;;;7.53;;
6432;SDS011;3249;42.690;23.260;2022-09-19T17:31:32;14.00;;;8.23;;
6432;SDS011;3249;42.690;23.260;2022-09-19T17:33:58;17.13;;;8.50;;
6432;SDS011;3249;42.690;23.260;2022-09-19T17:36:24;18.00;;;7.17;;
6432;SDS011;3249;42.690;23.260;2022-09-19T17:38:49;10.03;;;6.83;;
6432;SDS011;3249;42.690;23.260;2022-09-19T17:41:15;11.00;;;7.37;;
6432;SDS011;3249;42.690;23.260;2022-09-19T17:43:41;13.23;;;7.97;;
6432;SDS011;3249;42.690;23.260;2022-09-19T17:46:09;5.40;;;4.10;;
6432;SDS011;3249;42.690;23.260;2022-09-19T17:48:35;6.90;;;4.83;;
6432;SDS011;3249;42.690;23.260;2022-09-19T17:51:07;21.83;;;11.13;;
6432;SDS011;3249;42.690;23.260;2022-09-19T17:53:38;8.57;;;5.67;;
6432;SDS011;3249;42.690;23.260;2022-09-19T17:56:08;5.17;;;4.67;;
6432;SDS011;3249;42.690;23.260;2022-09-19T17:58:43;8.37;;;5.17;;
6432;SDS011;3249;42.690;23.260;2022-09-19T18:01:13;6.30;;;3.43;;
6432;SDS011;3249;42.690;23.260;2022-09-19T18:03:58;4.03;;;3.60;;
6432;SDS011;3249;42.690;23.260;2022-09-19T18:06:24;6.17;;;3.63;;
6432;SDS011;3249;42.690;23.260;2022-09-19T18:08:50;3.20;;;2.97;;
6432;SDS011;3249;42.690;23.260;2022-09-19T18:11:15;3.77;;;2.70;;
6432;SDS011;3249;42.690;23.260;2022-09-19T18:13:41;2.80;;;2.60;;
6432;SDS011;3249;42.690;23.260;2022-09-19T18:16:11;2.97;;;2.73;;
6432;SDS011;3249;42.690;23.260;2022-09-19T18:18:39;3.10;;;2.90;;
6432;SDS011;3249;42.690;23.260;2022-09-19T18:21:05;2.90;;;2.70;;
6432;SDS011;3249;42.690;23.260;2022-09-19T18:23:33;3.17;;;2.87;;
6432;SDS011;3249;42.690;23.260;2022-09-19T18:26:01;3.23;;;2.40;;
6432;SDS011;3249;42.690;23.260;2022-09-19T18:28:29;4.37;;;2.83;;
6432;SDS011;3249;42.690;23.260;2022-09-19T18:30:56;2.40;;;2.27;;
6432;SDS011;3249;42.690;23.260;2022-09-19T18:33:23;3.93;;;2.63;;
6432;SDS011;3249;42.690;23.260;2022-09-19T18:35:50;3.07;;;2.87;;
6432;SDS011;3249;42.690;23.260;2022-09-19T18:38:16;2.50;;;2.30;;
6432;SDS011;3249;42.690;23.260;2022-09-19T18:40:43;2.60;;;2.20;;
6432;SDS011;3249;42.690;23.260;2022-09-19T18:43:10;3.43;;;2.60;;
6432;SDS011;3249;42.690;23.260;2022-09-19T18:45:36;4.77;;;2.67;;
6432;SDS011;3249;42.690;23.260;2022-09-19T18:48:02;2.67;;;2.57;;
6432;SDS011;3249;42.690;23.260;2022-09-19T18:50:30;2.50;;;2.07;;
6432;SDS011;3249;42.690;23.260;2022-09-19T18:52:55;3.70;;;2.20;;